Spirit of St Louis Airport
KSUS : now visible

Airfield :











YOU CAN JOIN US ON...

 
LOGIN :

Register | Disclaimer

   EN    FR    IT 

 









Legend :    VFR   Marginal VFR   IFR   Intensive IFR   Very Intensive IFR
Visi :
Ceiling :
>= 8 km
>= 3000ft
5 to 8 km
1000 to 3000 ft
1500m to 5 km
500 to 1000 ft
800 to 1500m
200 to 500 ft
< 800m
< 200 ft
Symbols :   Thunderstorms  Fog  Heavy snow  Heavy precipitations  Wind > 20 kt






- Airport Elevation : 463 ft


KSUS - Spirit of St Louis

CURRENT METAR :
  • 250754Z 23004KT 10SM CLR 25/22 A2985 RMK AO2 SLP096 T02500222

EXPIRED METARs :
  • 250654Z 21004KT 10SM CLR 26/23 A2986 RMK AO2 SLP100 T02610228
  • 250554Z 21004KT 10SM CLR 27/23 A2986 RMK AO2 SLP103 T02720228 10339 20272 403560178 53005
  • 250454Z 17009KT 10SM CLR 28/23 A2985 RMK AO2 SLP098 T02830228
  • 250354Z 18008KT 10SM CLR 29/23 A2985 RMK AO2 SLP099 T02890228

TAF KSUS
Valid from the 25 at 06:00 until the 26 at 06:00 UTC


250520Z 2506/2606 19006KT P6SM FEW250
FM251400 23007KT P6SM FEW250
FM252300 21007KT P6SM SCT110
FM260000 VRB04KT P6SM SCT110
KZKC FIR / North America



MET'MAP, your aeronautical weather chart ! - Copyright ORBIFLY December 2007 - Disclaimer

ORBIFLY MET'MAP TEAM :

Programming & Development : Alexandra Zaïnal
Original concept : Baudouin d'Aumeries
Technical & hardware support : Manuel Goepfert
Assistance : Marc-Olivier Méhu




SOURCES & CREDITS :

   NOAA       Earth
Advisory